Rock Lake, North Dakota
Current Conditions -  °F | °C
As of 5:35 AM on Thursday 18 Dec 2014 (Local Time) from K06D Reporting Station
Clear Clear  
Wind Chill: -10°   Ceiling: Unl
Heat Index:   Visibility: 10mi
Dew Point:   Wind: 8mph
Humidity: 85%   Direction: 200°SSW
Pressure: 30.12"   Gusts: NA
Location:  48.8584°N, 99.1311°W
Report Text: K06D 181135Z AUTO 20007KT 10SM CLR M16/M18 A3012 RMK AO2
Loading
Personal Weather Stations






























Interactive Weather Map New forecast layout! Learn more

10-Day Weather Forecast

Advertisements
Track Severe Weather on mobile